Time;durP1;ratioP1;P1;durP2;ratioP2;P2;SDS_P1;SDS_P2;PMS_P1;PMS_P2;Temp;Humidity;BMP_temperature;BMP_pressure;BME280_temperature;BME280_humidity;BME280_pressure;Samples;Min_cycle;Max_cycle;Signal;HPM_P1;HPM_P2
2023/01/04 00:02:05;;;;;;;8.27;3.03;;;;;;;;;;5054945;28;20040;-77
2023/01/04 00:04:31;;;;;;;8.52;3.17;;;;;;;;;;5070754;28;20048;-78
2023/01/04 00:06:57;;;;;;;12.82;3.45;;;;;;;;;;5042338;28;20044;-78
2023/01/04 00:09:23;;;;;;;8.50;3.08;;;;;;;;;;5058337;28;20040;-78
2023/01/04 00:11:49;;;;;;;8.35;3.05;;;;;;;;;;5051752;28;20139;-78
2023/01/04 00:14:17;;;;;;;8.50;3.30;;;;;;;;;;5051311;28;20077;-77
2023/01/04 00:16:43;;;;;;;10.20;3.20;;;;;;;;;;5055606;28;20481;-77
2023/01/04 00:19:10;;;;;;;9.80;3.10;;;;;;;;;;5071235;28;20100;-78
2023/01/04 00:21:36;;;;;;;10.48;3.58;;;;;;;;;;5055472;28;20068;-77
2023/01/04 00:24:03;;;;;;;8.57;3.22;;;;;;;;;;5051440;28;20068;-77
2023/01/04 00:26:30;;;;;;;11.25;3.38;;;;;;;;;;5065308;28;20094;-77
2023/01/04 00:29:00;;;;;;;9.65;3.20;;;;;;;;;;5071472;28;20055;-78
2023/01/04 00:31:27;;;;;;;9.68;3.72;;;;;;;;;;5041822;28;20401;-78
2023/01/04 00:33:53;;;;;;;8.88;3.17;;;;;;;;;;5056252;28;20044;-77
2023/01/04 00:36:19;;;;;;;7.90;3.20;;;;;;;;;;5059941;28;20068;-77
2023/01/04 00:38:46;;;;;;;11.65;3.13;;;;;;;;;;5065400;28;20370;-77
2023/01/04 00:41:12;;;;;;;13.10;3.80;;;;;;;;;;5034613;28;20613;-78
2023/01/04 00:43:38;;;;;;;7.38;3.15;;;;;;;;;;5051398;28;20049;-78
2023/01/04 00:46:06;;;;;;;7.68;3.17;;;;;;;;;;5058570;28;20041;-78
2023/01/04 00:48:32;;;;;;;10.70;3.78;;;;;;;;;;5058939;28;20079;-78
2023/01/04 00:50:59;;;;;;;8.73;3.28;;;;;;;;;;5072137;28;20044;-78
2023/01/04 00:53:25;;;;;;;8.45;3.35;;;;;;;;;;5070850;28;20124;-78
2023/01/04 00:55:51;;;;;;;11.35;3.92;;;;;;;;;;5067420;28;20041;-78
2023/01/04 00:58:17;;;;;;;10.95;3.10;;;;;;;;;;5050520;28;20044;-78
2023/01/04 01:00:43;;;;;;;10.20;3.63;;;;;;;;;;5062701;28;20068;-78
2023/01/04 01:03:09;;;;;;;11.32;3.75;;;;;;;;;;5050072;28;20095;-78
2023/01/04 01:05:36;;;;;;;10.38;3.30;;;;;;;;;;5051182;28;20403;-78
2023/01/04 01:08:23;;;;;;;7.78;3.53;;;;;;;;;;5050608;28;20041;-77
2023/01/04 01:10:48;;;;;;;7.15;3.58;;;;;;;;;;5062078;28;20127;-78
2023/01/04 01:13:14;;;;;;;8.18;3.17;;;;;;;;;;5070705;28;20485;-77
2023/01/04 01:15:40;;;;;;;9.82;3.28;;;;;;;;;;5061721;28;20052;-79
2023/01/04 01:18:06;;;;;;;7.88;3.78;;;;;;;;;;5051626;28;20090;-78
2023/01/04 01:20:32;;;;;;;6.03;2.90;;;;;;;;;;5054434;28;20032;-79
2023/01/04 01:22:59;;;;;;;5.82;3.25;;;;;;;;;;5070811;28;20048;-78
2023/01/04 01:25:25;;;;;;;6.90;3.00;;;;;;;;;;5070647;28;20599;-78
2023/01/04 01:27:51;;;;;;;11.20;3.30;;;;;;;;;;5070921;28;20062;-78
2023/01/04 01:30:17;;;;;;;7.30;2.90;;;;;;;;;;5036676;28;20041;-78
2023/01/04 01:32:43;;;;;;;8.05;3.40;;;;;;;;;;5059923;28;20040;-79
2023/01/04 01:35:09;;;;;;;6.75;3.75;;;;;;;;;;5069634;28;20079;-78
2023/01/04 01:37:35;;;;;;;7.80;3.20;;;;;;;;;;5063118;28;20121;-78
2023/01/04 01:40:01;;;;;;;8.13;3.30;;;;;;;;;;5047777;28;20481;-78
2023/01/04 01:42:27;;;;;;;7.78;3.20;;;;;;;;;;5048371;28;20883;-78
2023/01/04 01:44:56;;;;;;;6.88;3.40;;;;;;;;;;5034101;28;20041;-78
2023/01/04 01:47:25;;;;;;;8.25;3.10;;;;;;;;;;5068127;28;20570;-78
2023/01/04 01:49:52;;;;;;;5.88;3.08;;;;;;;;;;5070445;28;20040;-78
2023/01/04 01:52:24;;;;;;;8.27;3.40;;;;;;;;;;5070408;28;20048;-78
2023/01/04 01:54:55;;;;;;;5.65;3.38;;;;;;;;;;5063096;28;20056;-78
2023/01/04 01:57:23;;;;;;;6.50;2.67;;;;;;;;;;5059326;28;20080;-78
2023/01/04 01:59:50;;;;;;;7.13;3.08;;;;;;;;;;5073746;28;20040;-78
2023/01/04 02:02:16;;;;;;;7.10;2.72;;;;;;;;;;5073326;28;20041;-78
2023/01/04 02:04:44;;;;;;;8.73;3.05;;;;;;;;;;5073529;28;20045;-78
2023/01/04 02:07:11;;;;;;;6.28;3.10;;;;;;;;;;5073480;28;20043;-78
2023/01/04 02:09:37;;;;;;;6.38;2.60;;;;;;;;;;5073726;28;20059;-78
2023/01/04 02:12:03;;;;;;;5.63;2.83;;;;;;;;;;5073549;28;20047;-78
2023/01/04 02:14:30;;;;;;;4.63;2.38;;;;;;;;;;5073149;28;20080;-78
2023/01/04 02:17:09;;;;;;;7.80;2.50;;;;;;;;;;5073465;28;20047;-78
2023/01/04 02:19:47;;;;;;;4.60;2.42;;;;;;;;;;5073110;28;20047;-78
2023/01/04 02:22:42;;;;;;;4.45;2.38;;;;;;;;;;5047894;28;20481;-78
2023/01/04 02:25:27;;;;;;;4.15;2.20;;;;;;;;;;5059501;28;20477;-78
2023/01/04 02:28:02;;;;;;;5.18;2.60;;;;;;;;;;5073523;28;20033;-78
2023/01/04 02:30:37;;;;;;;6.43;2.85;;;;;;;;;;5056438;28;20047;-78
2023/01/04 02:33:15;;;;;;;7.40;2.50;;;;;;;;;;5074758;28;20071;-78
2023/01/04 02:35:47;;;;;;;4.97;2.45;;;;;;;;;;5060746;28;20064;-78
2023/01/04 02:38:21;;;;;;;3.55;2.35;;;;;;;;;;5074351;28;20044;-78
2023/01/04 02:41:03;;;;;;;3.65;2.10;;;;;;;;;;5067361;28;20041;-78
2023/01/04 02:46:44;;;;;;;5.53;2.40;;;;;;;;;;5063995;28;20083;-78
2023/01/04 02:51:55;;;;;;;5.07;2.75;;;;;;;;;;5073262;28;20461;-77
2023/01/04 02:54:24;;;;;;;4.25;2.90;;;;;;;;;;5041550;28;20480;-78
2023/01/04 02:57:08;;;;;;;4.75;3.00;;;;;;;;;;5072926;28;20083;-77
2023/01/04 02:59:39;;;;;;;5.75;2.95;;;;;;;;;;5043938;28;20072;-77
2023/01/04 03:07:43;;;;;;;7.05;3.80;;;;;;;;;;5072236;28;20404;-77
2023/01/04 03:10:23;;;;;;;8.00;3.60;;;;;;;;;;5072512;28;20500;-77
2023/01/04 03:12:56;;;;;;;7.03;4.13;;;;;;;;;;5072344;28;20048;-77
2023/01/04 03:15:29;;;;;;;7.63;4.65;;;;;;;;;;5072215;28;20036;-77
2023/01/04 03:17:58;;;;;;;7.03;4.68;;;;;;;;;;5058790;28;20048;-77
2023/01/04 03:20:25;;;;;;;9.32;5.75;;;;;;;;;;5073065;28;20036;-78
2023/01/04 03:37:05;;;;;;;10.20;6.50;;;;;;;;;;5053492;28;20041;-77
2023/01/04 03:48:32;;;;;;;8.10;5.80;;;;;;;;;;5051945;28;20501;-79
2023/01/04 03:51:13;;;;;;;9.55;6.32;;;;;;;;;;5051659;28;20067;-78
2023/01/04 03:53:51;;;;;;;8.98;6.10;;;;;;;;;;5039172;28;20452;-78
2023/01/04 03:56:19;;;;;;;8.43;6.07;;;;;;;;;;5051481;28;20047;-78
2023/01/04 03:58:45;;;;;;;9.88;6.47;;;;;;;;;;5034936;28;20546;-78
2023/01/04 04:01:12;;;;;;;9.85;6.65;;;;;;;;;;5051551;28;20047;-78
2023/01/04 04:09:07;;;;;;;10.23;6.93;;;;;;;;;;5051290;28;20044;-78
2023/01/04 04:11:33;;;;;;;12.35;8.25;;;;;;;;;;5051003;28;20045;-78
2023/01/04 04:13:59;;;;;;;12.80;7.65;;;;;;;;;;5034662;28;20390;-78
2023/01/04 04:16:26;;;;;;;10.73;7.15;;;;;;;;;;5051580;28;20561;-78
2023/01/04 04:18:52;;;;;;;11.77;7.53;;;;;;;;;;5051394;28;20063;-78
2023/01/04 04:21:18;;;;;;;12.45;7.88;;;;;;;;;;5051224;28;20098;-78
2023/01/04 04:23:44;;;;;;;12.30;7.38;;;;;;;;;;5050754;28;20045;-78
2023/01/04 04:26:11;;;;;;;12.82;7.72;;;;;;;;;;5050867;28;20040;-78
2023/01/04 04:28:38;;;;;;;11.60;7.78;;;;;;;;;;5050564;28;20045;-78
2023/01/04 04:31:04;;;;;;;10.93;6.97;;;;;;;;;;5051031;28;20068;-77
2023/01/04 04:33:30;;;;;;;9.15;6.30;;;;;;;;;;5050451;28;20422;-78
2023/01/04 04:35:56;;;;;;;9.95;6.38;;;;;;;;;;5050794;28;20048;-78
2023/01/04 04:38:22;;;;;;;8.75;6.03;;;;;;;;;;5051254;28;20461;-78
2023/01/04 04:43:34;;;;;;;7.32;5.47;;;;;;;;;;5050674;28;20116;-78
2023/01/04 04:46:00;;;;;;;7.72;5.60;;;;;;;;;;5050994;28;20516;-78
2023/01/04 04:48:26;;;;;;;10.10;5.57;;;;;;;;;;5050846;28;20048;-78
2023/01/04 04:50:52;;;;;;;8.23;5.43;;;;;;;;;;5050687;28;20080;-78
2023/01/04 04:53:18;;;;;;;10.60;6.25;;;;;;;;;;5050738;28;20048;-77
2023/01/04 04:55:44;;;;;;;8.13;5.85;;;;;;;;;;5050392;28;20049;-78
2023/01/04 04:58:10;;;;;;;8.50;5.65;;;;;;;;;;5052080;28;20037;-77
2023/01/04 05:00:36;;;;;;;8.90;5.82;;;;;;;;;;5051661;28;20045;-78
2023/01/04 05:03:02;;;;;;;8.52;5.40;;;;;;;;;;5036837;28;20448;-78
2023/01/04 05:05:28;;;;;;;8.48;5.20;;;;;;;;;;5050381;28;20045;-78
2023/01/04 05:07:54;;;;;;;8.55;5.55;;;;;;;;;;5050376;28;20049;-78
2023/01/04 05:10:20;;;;;;;9.70;5.70;;;;;;;;;;5050609;28;20084;-78
2023/01/04 05:12:58;;;;;;;8.05;5.10;;;;;;;;;;5050435;28;20041;-77
2023/01/04 05:15:35;;;;;;;7.88;5.15;;;;;;;;;;5038213;28;20037;-78
2023/01/04 05:18:02;;;;;;;9.38;6.28;;;;;;;;;;5050608;28;20048;-78
2023/01/04 05:20:28;;;;;;;10.20;5.35;;;;;;;;;;5050597;28;20086;-78
2023/01/04 05:22:54;;;;;;;7.55;5.43;;;;;;;;;;5050202;28;20048;-78
2023/01/04 05:25:20;;;;;;;8.63;6.15;;;;;;;;;;5033695;28;20041;-77
2023/01/04 05:27:46;;;;;;;7.38;5.38;;;;;;;;;;5037444;28;20055;-77
2023/01/04 05:32:58;;;;;;;8.35;5.70;;;;;;;;;;5053972;28;20053;-78
2023/01/04 05:35:24;;;;;;;8.13;5.43;;;;;;;;;;5053990;28;20076;-78
2023/01/04 05:37:50;;;;;;;9.43;6.00;;;;;;;;;;5053910;28;20044;-77
2023/01/04 05:40:16;;;;;;;8.55;6.07;;;;;;;;;;5037711;28;20120;-78
2023/01/04 05:42:42;;;;;;;9.60;6.55;;;;;;;;;;5055017;28;20048;-78
2023/01/04 05:45:09;;;;;;;11.38;6.50;;;;;;;;;;5037914;28;20516;-77
2023/01/04 05:47:35;;;;;;;13.98;6.88;;;;;;;;;;5054443;28;20474;-77
2023/01/04 05:50:01;;;;;;;9.90;6.45;;;;;;;;;;5054042;28;20041;-77
2023/01/04 05:52:27;;;;;;;10.65;6.03;;;;;;;;;;5054058;28;20453;-77
2023/01/04 05:54:54;;;;;;;12.40;6.50;;;;;;;;;;5036882;28;20438;-78
2023/01/04 05:57:20;;;;;;;10.95;6.40;;;;;;;;;;5037140;28;20073;-78
2023/01/04 05:59:46;;;;;;;12.23;7.00;;;;;;;;;;5053318;28;20087;-77
2023/01/04 06:02:17;;;;;;;9.98;6.05;;;;;;;;;;5053695;28;20033;-78
2023/01/04 06:04:43;;;;;;;10.55;6.72;;;;;;;;;;5053268;28;20037;-77
2023/01/04 06:07:09;;;;;;;12.55;6.55;;;;;;;;;;5053866;28;20410;-77
2023/01/04 06:09:35;;;;;;;11.50;6.22;;;;;;;;;;5036998;28;20076;-77
2023/01/04 06:12:01;;;;;;;11.50;6.70;;;;;;;;;;5054459;28;20037;-78
2023/01/04 06:14:27;;;;;;;13.98;6.70;;;;;;;;;;5087031;28;20090;-77
2023/01/04 06:16:53;;;;;;;10.43;6.65;;;;;;;;;;5036414;28;20040;-78
2023/01/04 06:19:19;;;;;;;10.48;6.45;;;;;;;;;;5053425;28;20033;-77
2023/01/04 06:21:45;;;;;;;10.18;5.78;;;;;;;;;;5052715;28;20167;-77
2023/01/04 06:24:11;;;;;;;12.98;6.13;;;;;;;;;;5053237;28;20052;-77
2023/01/04 06:26:37;;;;;;;9.73;5.70;;;;;;;;;;5036549;28;20049;-77
2023/01/04 06:29:04;;;;;;;9.45;6.13;;;;;;;;;;5054374;28;20536;-77
2023/01/04 06:31:30;;;;;;;9.63;5.60;;;;;;;;;;5053307;28;20486;-78
2023/01/04 06:33:56;;;;;;;10.32;5.72;;;;;;;;;;5038864;28;20433;-78
2023/01/04 06:36:22;;;;;;;11.05;5.95;;;;;;;;;;5052929;28;20094;-78
2023/01/04 06:38:48;;;;;;;9.75;5.40;;;;;;;;;;5052491;28;20048;-78
2023/01/04 06:41:14;;;;;;;10.13;5.18;;;;;;;;;;5053265;28;20504;-78
2023/01/04 06:43:40;;;;;;;6.70;5.13;;;;;;;;;;5052808;28;20045;-78
2023/01/04 06:46:07;;;;;;;7.65;4.93;;;;;;;;;;5052671;28;20041;-78
2023/01/04 06:48:33;;;;;;;10.63;4.97;;;;;;;;;;5053008;28;20044;-79
2023/01/04 06:50:59;;;;;;;5.90;4.10;;;;;;;;;;5052677;28;20049;-79
2023/01/04 06:53:25;;;;;;;6.38;4.10;;;;;;;;;;5052433;28;20065;-78
2023/01/04 06:55:51;;;;;;;4.78;3.50;;;;;;;;;;5052415;28;20068;-78
2023/01/04 06:58:17;;;;;;;5.53;3.13;;;;;;;;;;5019623;28;20105;-78
2023/01/04 07:00:43;;;;;;;4.95;3.10;;;;;;;;;;5052692;28;20048;-78
2023/01/04 07:03:09;;;;;;;4.45;2.92;;;;;;;;;;5052102;28;20123;-78
2023/01/04 07:05:35;;;;;;;4.55;2.50;;;;;;;;;;5052754;28;20037;-78
2023/01/04 07:08:02;;;;;;;4.00;2.80;;;;;;;;;;5052257;28;20041;-77
2023/01/04 07:10:28;;;;;;;4.28;2.50;;;;;;;;;;5052546;28;20045;-78
2023/01/04 07:12:54;;;;;;;5.53;2.70;;;;;;;;;;5051838;28;20123;-78
2023/01/04 07:15:20;;;;;;;4.20;2.70;;;;;;;;;;5052849;28;20493;-78
2023/01/04 07:17:47;;;;;;;4.63;2.90;;;;;;;;;;5052461;28;20087;-78
2023/01/04 07:20:13;;;;;;;4.60;3.10;;;;;;;;;;5052473;28;20059;-78
2023/01/04 07:22:39;;;;;;;4.43;2.95;;;;;;;;;;5035917;28;20037;-78
2023/01/04 07:25:05;;;;;;;6.88;3.33;;;;;;;;;;5052226;28;20052;-78
2023/01/04 07:27:32;;;;;;;4.15;3.25;;;;;;;;;;5054123;28;20094;-78
2023/01/04 07:29:58;;;;;;;6.63;3.83;;;;;;;;;;5051997;28;20041;-78
2023/01/04 07:32:24;;;;;;;7.53;4.40;;;;;;;;;;5053696;28;20115;-78
2023/01/04 07:34:50;;;;;;;7.53;4.50;;;;;;;;;;5035488;28;20068;-78
2023/01/04 07:37:16;;;;;;;5.85;4.35;;;;;;;;;;5052071;28;20041;-77
2023/01/04 07:39:42;;;;;;;6.25;4.35;;;;;;;;;;5052080;28;20048;-77
2023/01/04 07:42:09;;;;;;;7.28;4.85;;;;;;;;;;5035173;28;20040;-77
2023/01/04 07:44:35;;;;;;;8.45;5.40;;;;;;;;;;5052027;28;20036;-77
2023/01/04 07:47:01;;;;;;;8.13;5.40;;;;;;;;;;5051724;28;20044;-77
2023/01/04 07:49:27;;;;;;;13.00;6.05;;;;;;;;;;5051193;28;20036;-77
2023/01/04 07:51:53;;;;;;;11.20;5.78;;;;;;;;;;5052833;28;20036;-77
2023/01/04 07:54:20;;;;;;;9.23;5.68;;;;;;;;;;5051445;28;20059;-77
2023/01/04 07:56:46;;;;;;;9.25;5.53;;;;;;;;;;5051803;28;20041;-78
2023/01/04 07:59:14;;;;;;;10.07;6.05;;;;;;;;;;5051266;28;20041;-78
2023/01/04 08:01:40;;;;;;;10.75;5.90;;;;;;;;;;5053114;28;20071;-78
2023/01/04 08:04:07;;;;;;;9.80;5.63;;;;;;;;;;5052451;28;20045;-78
2023/01/04 08:06:34;;;;;;;7.75;5.65;;;;;;;;;;5051334;28;20048;-78
2023/01/04 08:09:00;;;;;;;8.18;5.35;;;;;;;;;;5051413;28;20553;-78
2023/01/04 08:11:26;;;;;;;8.93;4.90;;;;;;;;;;5051358;28;20157;-78
2023/01/04 08:13:52;;;;;;;8.93;5.13;;;;;;;;;;5051137;28;20091;-78
2023/01/04 08:16:18;;;;;;;8.10;5.18;;;;;;;;;;5034270;28;20040;-78
2023/01/04 08:18:44;;;;;;;10.43;4.82;;;;;;;;;;5051198;28;20124;-78
2023/01/04 08:21:10;;;;;;;10.43;5.20;;;;;;;;;;5051419;28;20037;-78
2023/01/04 08:23:37;;;;;;;11.27;5.70;;;;;;;;;;5034747;28;20036;-78
2023/01/04 08:26:05;;;;;;;8.52;4.15;;;;;;;;;;5050932;28;20048;-78
2023/01/04 08:28:31;;;;;;;9.00;4.80;;;;;;;;;;5066526;28;20052;-78
2023/01/04 08:30:57;;;;;;;7.95;4.50;;;;;;;;;;5071260;28;20097;-77
2023/01/04 08:33:23;;;;;;;7.18;4.68;;;;;;;;;;5069904;28;20048;-78
2023/01/04 08:35:49;;;;;;;6.43;3.78;;;;;;;;;;5053006;28;20037;-78
2023/01/04 08:38:15;;;;;;;6.13;3.58;;;;;;;;;;5050999;28;20408;-78
2023/01/04 08:40:42;;;;;;;5.20;3.13;;;;;;;;;;5051088;28;20041;-78
2023/01/04 08:43:08;;;;;;;4.75;3.00;;;;;;;;;;5034218;28;20088;-78
2023/01/04 08:45:34;;;;;;;7.03;3.33;;;;;;;;;;5084354;28;20051;-78
2023/01/04 08:48:00;;;;;;;4.97;3.10;;;;;;;;;;5050900;28;20464;-78
2023/01/04 08:50:26;;;;;;;3.67;2.50;;;;;;;;;;5051348;28;20452;-78
2023/01/04 08:52:52;;;;;;;5.40;2.58;;;;;;;;;;5051044;28;20466;-78
2023/01/04 08:55:18;;;;;;;5.55;2.67;;;;;;;;;;5050255;28;20060;-79
2023/01/04 08:57:44;;;;;;;2.80;2.10;;;;;;;;;;5050822;28;20056;-78
2023/01/04 09:00:10;;;;;;;3.58;1.90;;;;;;;;;;5050308;28;20033;-78
2023/01/04 09:02:36;;;;;;;4.38;2.03;;;;;;;;;;5055190;28;20033;-78
2023/01/04 09:05:03;;;;;;;3.03;1.70;;;;;;;;;;5054847;28;20545;-79
2023/01/04 09:07:29;;;;;;;3.03;1.75;;;;;;;;;;5055213;28;20052;-79
2023/01/04 09:09:56;;;;;;;3.05;1.70;;;;;;;;;;5088813;28;20040;-78
2023/01/04 09:12:22;;;;;;;3.60;1.90;;;;;;;;;;5054491;28;20041;-78
2023/01/04 09:14:48;;;;;;;3.50;1.60;;;;;;;;;;5054614;28;20051;-78
2023/01/04 09:17:15;;;;;;;3.78;1.60;;;;;;;;;;5054226;28;20413;-78
2023/01/04 09:19:41;;;;;;;3.30;1.90;;;;;;;;;;5054815;28;20531;-78
2023/01/04 09:22:07;;;;;;;3.58;1.92;;;;;;;;;;5054712;28;20567;-79
2023/01/04 09:24:33;;;;;;;3.72;1.80;;;;;;;;;;5054831;28;20489;-78
2023/01/04 09:26:59;;;;;;;4.55;2.00;;;;;;;;;;5054899;28;20506;-78
2023/01/04 09:29:29;;;;;;;3.85;1.92;;;;;;;;;;5054319;28;20494;-78
2023/01/04 09:31:55;;;;;;;6.95;2.38;;;;;;;;;;5054593;28;20482;-79
2023/01/04 09:34:21;;;;;;;5.97;2.50;;;;;;;;;;5054223;28;20465;-78
2023/01/04 09:36:49;;;;;;;7.10;2.70;;;;;;;;;;5038192;28;20493;-78
2023/01/04 09:39:16;;;;;;;7.45;2.40;;;;;;;;;;5054228;28;20116;-78
2023/01/04 09:41:49;;;;;;;6.88;2.60;;;;;;;;;;5054233;28;20047;-78
2023/01/04 09:44:31;;;;;;;5.68;2.13;;;;;;;;;;5053669;28;20037;-78
2023/01/04 09:47:06;;;;;;;6.88;2.50;;;;;;;;;;5055756;28;20045;-78
2023/01/04 09:49:36;;;;;;;13.02;3.00;;;;;;;;;;5053928;28;20075;-78
2023/01/04 09:52:19;;;;;;;6.47;2.10;;;;;;;;;;5054146;28;20045;-78
2023/01/04 09:54:55;;;;;;;10.63;2.35;;;;;;;;;;5053705;28;20132;-78
2023/01/04 09:57:32;;;;;;;10.70;2.63;;;;;;;;;;5053608;28;20067;-78
2023/01/04 10:00:19;;;;;;;12.43;2.25;;;;;;;;;;5040533;28;20047;-78
2023/01/04 10:02:45;;;;;;;11.80;2.78;;;;;;;;;;5039810;28;20038;-78
2023/01/04 10:05:17;;;;;;;15.80;2.97;;;;;;;;;;5053522;28;20040;-78
2023/01/04 10:07:43;;;;;;;13.82;2.40;;;;;;;;;;5053712;28;20124;-78
2023/01/04 10:10:14;;;;;;;15.50;2.65;;;;;;;;;;5053731;28;20079;-78
2023/01/04 10:12:52;;;;;;;14.57;3.00;;;;;;;;;;5053039;28;20072;-78
2023/01/04 10:15:37;;;;;;;21.60;3.15;;;;;;;;;;5040344;28;20490;-78
2023/01/04 10:18:19;;;;;;;17.15;3.10;;;;;;;;;;5053602;28;20509;-78
2023/01/04 10:20:56;;;;;;;17.23;3.25;;;;;;;;;;5036799;28;20183;-78
2023/01/04 10:23:41;;;;;;;18.92;3.13;;;;;;;;;;5053149;28;20038;-78
2023/01/04 10:26:07;;;;;;;21.50;3.35;;;;;;;;;;5053799;28;20124;-79
2023/01/04 10:28:41;;;;;;;27.02;3.63;;;;;;;;;;5054558;28;20072;-79
2023/01/04 10:31:16;;;;;;;24.52;3.58;;;;;;;;;;5037107;28;20044;-78
2023/01/04 10:33:47;;;;;;;23.27;4.05;;;;;;;;;;5036732;28;20068;-78
2023/01/04 10:36:17;;;;;;;23.05;3.13;;;;;;;;;;5053431;28;20505;-77
2023/01/04 10:38:44;;;;;;;20.95;3.75;;;;;;;;;;5053433;28;20032;-78
2023/01/04 10:41:11;;;;;;;19.38;4.55;;;;;;;;;;5053401;28;20083;-79
2023/01/04 10:43:52;;;;;;;22.42;3.53;;;;;;;;;;5053033;28;20045;-78
2023/01/04 10:46:26;;;;;;;17.30;3.38;;;;;;;;;;5052793;28;20037;-78
2023/01/04 10:49:11;;;;;;;23.95;3.75;;;;;;;;;;5053491;28;20449;-78
2023/01/04 10:51:47;;;;;;;23.30;3.90;;;;;;;;;;5021185;28;20490;-79
2023/01/04 10:54:13;;;;;;;;;;;;;;;;;;5048324;28;20045;-78
2023/01/04 10:56:47;;;;;;;25.80;4.35;;;;;;;;;;5053380;28;19940;-78
2023/01/04 10:59:17;;;;;;;24.98;4.50;;;;;;;;;;5053054;28;20187;-78
2023/01/04 11:01:47;;;;;;;26.63;3.83;;;;;;;;;;5052811;28;20037;-78
2023/01/04 11:04:17;;;;;;;22.77;3.28;;;;;;;;;;5052901;28;20056;-78
2023/01/04 11:06:47;;;;;;;26.25;5.15;;;;;;;;;;5052821;28;20063;-78
2023/01/04 11:09:34;;;;;;;27.98;4.57;;;;;;;;;;5053842;28;20478;-78
2023/01/04 11:12:00;;;;;;;24.88;3.80;;;;;;;;;;5040392;28;20048;-78
2023/01/04 11:14:26;;;;;;;26.75;3.88;;;;;;;;;;5052299;28;20045;-78
2023/01/04 11:16:56;;;;;;;22.42;3.22;;;;;;;;;;5052625;28;20086;-78
2023/01/04 11:19:22;;;;;;;22.75;3.50;;;;;;;;;;5052392;28;20090;-79
2023/01/04 11:22:00;;;;;;;23.60;3.88;;;;;;;;;;5036113;28;20041;-78
2023/01/04 11:24:29;;;;;;;24.10;3.70;;;;;;;;;;5051700;28;20402;-78
2023/01/04 11:26:56;;;;;;;20.75;3.58;;;;;;;;;;5052552;28;20494;-78
2023/01/04 11:29:25;;;;;;;21.85;3.47;;;;;;;;;;5052564;28;20378;-78
2023/01/04 11:31:56;;;;;;;21.98;3.53;;;;;;;;;;5052435;28;20516;-78
2023/01/04 11:34:41;;;;;;;26.90;4.20;;;;;;;;;;5035056;28;20049;-78
2023/01/04 11:37:22;;;;;;;21.48;2.92;;;;;;;;;;5035936;28;20525;-78
2023/01/04 11:39:48;;;;;;;19.58;2.90;;;;;;;;;;5052610;28;20083;-78
2023/01/04 11:42:21;;;;;;;14.38;2.70;;;;;;;;;;5052572;28;20104;-78
2023/01/04 11:45:00;;;;;;;21.08;3.25;;;;;;;;;;5052379;28;20045;-78
2023/01/04 11:47:29;;;;;;;21.70;2.70;;;;;;;;;;5052114;28;20497;-78
2023/01/04 11:49:55;;;;;;;19.55;2.72;;;;;;;;;;5019529;28;20402;-78
2023/01/04 11:52:27;;;;;;;13.93;2.15;;;;;;;;;;5052161;28;20402;-78
2023/01/04 11:54:53;;;;;;;14.85;2.13;;;;;;;;;;5038303;28;20084;-78
2023/01/04 11:57:20;;;;;;;13.95;2.05;;;;;;;;;;5052022;28;20037;-78
2023/01/04 12:00:06;;;;;;;11.15;2.03;;;;;;;;;;5051730;28;20044;-78
2023/01/04 12:02:32;;;;;;;8.47;1.50;;;;;;;;;;5038275;28;20056;-78
2023/01/04 12:04:58;;;;;;;11.20;1.83;;;;;;;;;;5051163;28;20333;-78
2023/01/04 12:07:27;;;;;;;8.70;1.30;;;;;;;;;;5051633;28;20045;-78
2023/01/04 12:09:53;;;;;;;6.07;1.15;;;;;;;;;;5051932;28;20037;-78
2023/01/04 12:12:20;;;;;;;5.15;0.93;;;;;;;;;;5051758;28;20052;-78
2023/01/04 12:14:49;;;;;;;4.68;1.20;;;;;;;;;;5051124;28;20048;-78
2023/01/04 12:17:24;;;;;;;4.03;1.10;;;;;;;;;;5051632;28;20037;-78
2023/01/04 12:19:53;;;;;;;8.35;1.50;;;;;;;;;;5034519;28;20047;-78
2023/01/04 12:22:22;;;;;;;6.63;1.20;;;;;;;;;;5051813;28;20033;-78
2023/01/04 12:24:49;;;;;;;7.13;1.25;;;;;;;;;;5051596;28;20575;-78
2023/01/04 12:27:15;;;;;;;4.15;1.02;;;;;;;;;;5051422;28;20079;-78
2023/01/04 12:29:43;;;;;;;8.20;1.50;;;;;;;;;;5051525;28;20570;-78
2023/01/04 12:32:12;;;;;;;6.57;1.42;;;;;;;;;;5051559;28;20041;-78
2023/01/04 12:34:42;;;;;;;9.70;1.95;;;;;;;;;;5050574;28;20435;-78
2023/01/04 12:37:09;;;;;;;8.52;1.50;;;;;;;;;;5051305;28;20048;-78
2023/01/04 12:39:42;;;;;;;8.63;1.45;;;;;;;;;;5051006;28;20087;-78
2023/01/04 12:42:17;;;;;;;11.32;2.58;;;;;;;;;;5053083;28;20501;-78
2023/01/04 12:44:46;;;;;;;11.10;1.85;;;;;;;;;;5039017;28;20072;-78
2023/01/04 12:50:07;;;;;;;15.57;2.42;;;;;;;;;;5051240;28;20131;-77
2023/01/04 12:52:33;;;;;;;13.27;2.08;;;;;;;;;;5050760;28;20049;-78
2023/01/04 12:55:01;;;;;;;8.73;2.10;;;;;;;;;;5050848;28;20056;-78
2023/01/04 12:57:31;;;;;;;12.38;2.80;;;;;;;;;;5051007;28;20037;-78
2023/01/04 13:00:11;;;;;;;13.57;2.35;;;;;;;;;;5037517;28;20044;-77
2023/01/04 13:02:50;;;;;;;15.63;3.13;;;;;;;;;;5051080;28;20489;-78
2023/01/04 13:05:16;;;;;;;14.98;2.50;;;;;;;;;;5051377;28;20076;-79
2023/01/04 13:07:50;;;;;;;15.20;2.88;;;;;;;;;;5050937;28;20041;-78
2023/01/04 13:10:18;;;;;;;20.40;3.17;;;;;;;;;;5055724;28;20086;-77
2023/01/04 13:12:49;;;;;;;22.35;2.67;;;;;;;;;;5060780;28;20036;-77
2023/01/04 13:15:21;;;;;;;20.70;3.05;;;;;;;;;;5068093;28;20041;-77
2023/01/04 13:17:47;;;;;;;15.13;2.33;;;;;;;;;;5044829;28;20045;-78
2023/01/04 13:20:22;;;;;;;17.02;2.90;;;;;;;;;;5068329;28;20119;-78
2023/01/04 13:22:56;;;;;;;20.73;3.38;;;;;;;;;;5071325;28;20044;-78
2023/01/04 13:25:23;;;;;;;18.15;3.05;;;;;;;;;;5070908;28;20040;-78
2023/01/04 13:28:03;;;;;;;17.55;2.88;;;;;;;;;;5054197;28;20036;-78
2023/01/04 13:30:33;;;;;;;21.80;3.38;;;;;;;;;;5054000;28;20036;-78
2023/01/04 13:33:07;;;;;;;21.52;2.90;;;;;;;;;;5061739;28;20045;-78
2023/01/04 13:35:33;;;;;;;25.48;3.17;;;;;;;;;;5051233;28;20044;-78
2023/01/04 13:38:00;;;;;;;18.85;3.13;;;;;;;;;;5017544;28;20048;-78
2023/01/04 13:40:27;;;;;;;19.83;2.58;;;;;;;;;;5050797;28;20048;-78
2023/01/04 13:43:12;;;;;;;19.20;2.60;;;;;;;;;;5034144;28;20139;-78
2023/01/04 13:45:48;;;;;;;21.98;3.40;;;;;;;;;;5050218;28;20406;-79
2023/01/04 13:48:17;;;;;;;19.10;2.88;;;;;;;;;;5041698;28;20064;-78
2023/01/04 13:50:47;;;;;;;22.05;3.90;;;;;;;;;;5054197;28;20048;-78
2023/01/04 13:53:18;;;;;;;20.60;2.60;;;;;;;;;;5054591;28;20090;-78
2023/01/04 13:55:49;;;;;;;20.73;2.80;;;;;;;;;;5037457;28;20053;-78
2023/01/04 13:58:19;;;;;;;20.05;3.05;;;;;;;;;;5041013;28;20049;-78
2023/01/04 14:00:51;;;;;;;21.60;3.08;;;;;;;;;;5053862;28;20041;-78
2023/01/04 14:03:35;;;;;;;18.92;2.78;;;;;;;;;;5054360;28;20415;-78
2023/01/04 14:06:13;;;;;;;22.88;3.63;;;;;;;;;;5053824;28;20507;-77
2023/01/04 14:08:42;;;;;;;23.85;3.38;;;;;;;;;;5043228;28;20508;-77
2023/01/04 14:11:57;;;;;;;20.05;3.10;;;;;;;;;;5053881;28;20083;-77
2023/01/04 14:14:01;;;;;;;17.60;3.05;;;;;;;;;;5053429;28;20059;-78
2023/01/04 14:16:27;;;;;;;22.55;3.03;;;;;;;;;;5037316;28;20513;-78
2023/01/04 14:18:53;;;;;;;18.73;3.08;;;;;;;;;;5036781;28;20116;-78
2023/01/04 14:21:32;;;;;;;25.45;3.53;;;;;;;;;;5053685;28;20033;-78
2023/01/04 14:23:58;;;;;;;22.33;3.72;;;;;;;;;;5053813;28;20521;-78
2023/01/04 14:26:32;;;;;;;17.65;2.67;;;;;;;;;;5055481;28;20064;-78
2023/01/04 14:28:58;;;;;;;16.15;3.15;;;;;;;;;;5040503;28;20049;-78
2023/01/04 14:31:30;;;;;;;20.67;2.85;;;;;;;;;;5053584;28;20037;-78
2023/01/04 14:33:56;;;;;;;17.10;2.40;;;;;;;;;;5053361;28;20497;-78
2023/01/04 14:36:27;;;;;;;14.60;2.58;;;;;;;;;;5053648;28;20060;-78
2023/01/04 14:38:53;;;;;;;16.85;3.78;;;;;;;;;;5036604;28;20435;-78
2023/01/04 14:41:22;;;;;;;15.30;2.63;;;;;;;;;;5053751;28;20429;-78
2023/01/04 14:43:52;;;;;;;19.52;2.75;;;;;;;;;;5039950;28;20049;-78
2023/01/04 14:46:18;;;;;;;21.27;3.30;;;;;;;;;;5053281;28;20056;-78
2023/01/04 14:48:45;;;;;;;14.10;2.13;;;;;;;;;;5037621;28;20045;-81
2023/01/04 14:51:14;;;;;;;20.25;3.25;;;;;;;;;;5037126;28;20072;-79
2023/01/04 14:53:41;;;;;;;11.52;2.35;;;;;;;;;;5052592;28;20072;-77
2023/01/04 14:56:10;;;;;;;17.23;2.72;;;;;;;;;;5053014;28;20048;-78
2023/01/04 14:58:36;;;;;;;19.48;3.17;;;;;;;;;;5052737;28;20060;-78
2023/01/04 15:01:02;;;;;;;22.25;2.67;;;;;;;;;;5052637;28;20041;-77
2023/01/04 15:03:28;;;;;;;16.38;2.72;;;;;;;;;;5036461;28;20076;-78
2023/01/04 15:05:54;;;;;;;14.85;2.30;;;;;;;;;;5053102;28;20497;-78
2023/01/04 15:08:20;;;;;;;19.27;2.70;;;;;;;;;;5054060;28;20033;-78
2023/01/04 15:10:47;;;;;;;21.27;2.70;;;;;;;;;;5053183;28;20482;-78
2023/01/04 15:13:13;;;;;;;15.57;3.33;;;;;;;;;;5054280;28;20037;-78
2023/01/04 15:15:39;;;;;;;17.60;2.80;;;;;;;;;;5052666;28;20120;-78
2023/01/04 15:18:06;;;;;;;20.05;2.97;;;;;;;;;;5050713;28;20048;-78
2023/01/04 15:20:32;;;;;;;15.05;2.88;;;;;;;;;;5040657;28;20429;-78
2023/01/04 15:22:58;;;;;;;13.35;2.58;;;;;;;;;;5052479;28;20110;-78
2023/01/04 15:25:25;;;;;;;15.45;2.50;;;;;;;;;;5035921;28;20041;-78
2023/01/04 15:27:52;;;;;;;17.52;3.10;;;;;;;;;;5035584;28;20068;-78
2023/01/04 15:30:18;;;;;;;17.58;2.70;;;;;;;;;;5052322;28;20090;-77
2023/01/04 15:32:44;;;;;;;20.58;2.67;;;;;;;;;;5054024;28;20073;-77
2023/01/04 15:35:14;;;;;;;20.02;2.38;;;;;;;;;;5051990;28;20079;-77